createdAt,value
2023-04-04T00:01:43.424Z,-0.76
2023-04-04T00:04:14.477Z,-0.80
2023-04-04T00:06:45.268Z,-0.85
2023-04-04T00:09:15.259Z,-0.89
2023-04-04T00:11:44.009Z,-0.93
2023-04-04T00:14:13.888Z,-0.97
2023-04-04T00:16:45.041Z,-1.00
2023-04-04T00:19:17.879Z,-1.03
2023-04-04T00:21:47.210Z,-1.07
2023-04-04T00:24:17.449Z,-1.10
2023-04-04T00:26:46.542Z,-1.14
2023-04-04T00:29:16.812Z,-1.17
2023-04-04T00:31:45.759Z,-1.22
2023-04-04T00:34:16.284Z,-1.27
2023-04-04T00:36:45.948Z,-1.32
2023-04-04T00:39:16.809Z,-1.36
2023-04-04T00:41:48.282Z,-1.40
2023-04-04T00:44:18.453Z,-1.44
2023-04-04T00:46:47.225Z,-1.48
2023-04-04T00:49:16.001Z,-1.51
2023-04-04T00:51:44.802Z,-1.54
2023-04-04T00:54:15.129Z,-1.58
2023-04-04T00:56:43.850Z,-1.63
2023-04-04T00:59:13.966Z,-1.69
2023-04-04T01:01:42.631Z,-1.75
2023-04-04T01:04:14.996Z,-1.80
2023-04-04T01:06:45.259Z,-1.85
2023-04-04T01:09:15.347Z,-1.91
2023-04-04T01:11:44.673Z,-1.95
2023-04-04T01:14:14.771Z,-1.99
2023-04-04T01:16:44.933Z,-2.00
2023-04-04T01:19:24.481Z,-2.02
2023-04-04T01:21:55.214Z,-2.04
2023-04-04T01:24:25.886Z,-2.06
2023-04-04T01:27:00.198Z,-2.08
2023-04-04T01:29:30.205Z,-2.12
2023-04-04T01:32:08.919Z,-2.15
2023-04-04T01:34:47.740Z,-2.19
2023-04-04T01:37:23.943Z,-2.22
2023-04-04T01:39:57.435Z,-2.25
2023-04-04T01:42:27.455Z,-2.27
2023-04-04T01:44:58.323Z,-2.30
2023-04-04T01:47:40.937Z,-2.31
2023-04-04T01:50:14.282Z,-2.32
2023-04-04T01:52:44.093Z,-2.32
2023-04-04T01:55:18.833Z,-2.33
2023-04-04T01:57:49.074Z,-2.35
2023-04-04T02:00:18.860Z,-2.37
2023-04-04T02:02:47.696Z,-2.38
2023-04-04T02:05:17.231Z,-2.40
2023-04-04T02:07:49.588Z,-2.43
2023-04-04T02:10:24.671Z,-2.45
2023-04-04T02:12:54.346Z,-2.49
2023-04-04T02:15:26.003Z,-2.52
2023-04-04T02:17:55.415Z,-2.55
2023-04-04T02:20:24.401Z,-2.57
2023-04-04T02:22:54.179Z,-2.59
2023-04-04T02:25:24.692Z,-2.59
2023-04-04T02:27:53.743Z,-2.59
2023-04-04T02:30:25.051Z,-2.59
2023-04-04T02:32:57.791Z,-2.59
2023-04-04T02:35:27.111Z,-2.60
2023-04-04T02:37:55.825Z,-2.62
2023-04-04T02:40:27.567Z,-2.64
2023-04-04T02:42:56.300Z,-2.66
2023-04-04T02:45:27.527Z,-2.68
2023-04-04T02:48:07.245Z,-2.70
2023-04-04T02:50:42.403Z,-2.72
2023-04-04T02:53:13.789Z,-2.75
2023-04-04T02:55:42.802Z,-2.77
2023-04-04T02:58:15.090Z,-2.77
2023-04-04T03:00:44.097Z,-2.77
2023-04-04T03:03:14.165Z,-2.78
2023-04-04T03:05:45.715Z,-2.81
2023-04-04T03:08:16.623Z,-2.83
2023-04-04T03:10:46.620Z,-2.84
2023-04-04T03:13:15.845Z,-2.85
2023-04-04T03:15:47.417Z,-2.88
2023-04-04T03:18:18.523Z,-2.91
2023-04-04T03:20:47.218Z,-2.92
2023-04-04T03:23:18.340Z,-2.94
2023-04-04T03:25:47.035Z,-2.95
2023-04-04T03:28:16.363Z,-2.96
2023-04-04T03:30:45.088Z,-2.96
2023-04-04T03:33:16.694Z,-2.96
2023-04-04T03:35:46.053Z,-2.97
2023-04-04T03:38:17.016Z,-2.98
2023-04-04T03:40:46.025Z,-3.00
2023-04-04T03:43:17.242Z,-3.02
2023-04-04T03:45:48.990Z,-3.05
2023-04-04T03:48:17.976Z,-3.08
2023-04-04T03:50:47.092Z,-3.10
2023-04-04T03:53:16.297Z,-3.12
2023-04-04T03:55:45.361Z,-3.15
2023-04-04T03:58:17.028Z,-3.16
2023-04-04T04:00:47.569Z,-3.16
2023-04-04T04:03:18.107Z,-3.16
2023-04-04T04:05:48.093Z,-3.15
2023-04-04T04:08:16.794Z,-3.13
2023-04-04T04:10:45.657Z,-3.14
2023-04-04T04:13:16.416Z,-3.13
2023-04-04T04:15:46.135Z,-3.11
2023-04-04T04:18:19.201Z,-3.07
2023-04-04T04:20:52.557Z,-2.98
2023-04-04T04:23:22.473Z,-2.88
2023-04-04T04:25:52.927Z,-2.82
2023-04-04T04:28:24.483Z,-2.81
2023-04-04T04:31:06.996Z,-2.75
2023-04-04T04:33:37.563Z,-2.69
2023-04-04T04:36:08.447Z,-2.66
2023-04-04T04:39:00.946Z,-2.64
2023-04-04T04:41:31.815Z,-2.65
2023-04-04T04:44:03.008Z,-2.64
2023-04-04T04:46:32.609Z,-2.67
2023-04-04T04:49:02.957Z,-2.66
2023-04-04T04:51:33.074Z,-2.67
2023-04-04T04:54:02.451Z,-2.66
2023-04-04T04:56:32.410Z,-2.68
2023-04-04T04:59:08.594Z,-2.69
2023-04-04T05:01:38.642Z,-2.67
2023-04-04T05:04:07.698Z,-2.62
2023-04-04T05:06:43.711Z,-2.55
2023-04-04T05:09:15.105Z,-2.51
2023-04-04T05:11:44.462Z,-2.48
2023-04-04T05:14:15.518Z,-2.43
2023-04-04T05:16:51.964Z,-2.37
2023-04-04T05:19:21.050Z,-2.19
2023-04-04T05:21:53.422Z,-1.73
2023-04-04T05:24:30.532Z,-1.06
2023-04-04T05:27:00.556Z,-0.29
2023-04-04T05:29:35.398Z,0.55
2023-04-04T05:32:05.323Z,1.17
2023-04-04T05:34:34.890Z,1.58
2023-04-04T05:37:06.500Z,1.90
2023-04-04T05:39:37.223Z,1.94
2023-04-04T05:42:08.052Z,1.60
2023-04-04T05:44:39.311Z,1.27
2023-04-04T05:47:08.323Z,1.05
2023-04-04T05:49:37.372Z,0.85
2023-04-04T05:52:06.939Z,0.65
2023-04-04T05:54:36.066Z,0.52
2023-04-04T05:57:07.891Z,0.33
2023-04-04T05:59:42.298Z,0.17
2023-04-04T06:02:13.846Z,0.06
2023-04-04T06:04:47.898Z,-0.02
2023-04-04T06:07:21.400Z,-0.10
2023-04-04T06:09:52.163Z,0.01
2023-04-04T06:12:21.322Z,0.11
2023-04-04T06:14:52.031Z,0.02
2023-04-04T06:17:23.574Z,0.09
2023-04-04T06:19:54.643Z,0.61
2023-04-04T06:22:24.023Z,1.34
2023-04-04T06:24:55.399Z,1.84
2023-04-04T06:27:25.707Z,2.45
2023-04-04T06:29:55.485Z,3.19
2023-04-04T06:32:25.781Z,3.72
2023-04-04T06:34:55.212Z,4.40
2023-04-04T06:37:55.854Z,4.62
2023-04-04T06:40:26.163Z,5.23
2023-04-04T06:42:57.587Z,5.76
2023-04-04T06:45:32.926Z,6.22
2023-04-04T06:48:01.946Z,6.61
2023-04-04T06:50:32.214Z,6.78
2023-04-04T06:53:02.886Z,6.99
2023-04-04T06:55:33.591Z,7.24
2023-04-04T06:58:02.404Z,7.10
2023-04-04T07:00:31.308Z,7.12
2023-04-04T07:03:00.796Z,7.18
2023-04-04T07:05:31.649Z,7.13
2023-04-04T07:08:00.115Z,6.74
2023-04-04T07:10:28.753Z,6.58
2023-04-04T07:12:57.337Z,6.64
2023-04-04T07:15:27.520Z,6.57
2023-04-04T07:17:57.009Z,6.10
2023-04-04T07:20:27.957Z,5.64
2023-04-04T07:22:56.558Z,5.34
2023-04-04T07:25:25.479Z,4.88
2023-04-04T07:28:02.295Z,4.48
2023-04-04T07:30:35.056Z,4.37
2023-04-04T07:33:04.550Z,4.39
2023-04-04T07:35:34.761Z,4.74
2023-04-04T07:38:04.430Z,5.09
2023-04-04T07:40:33.220Z,5.43
2023-04-04T07:43:02.057Z,5.49
2023-04-04T07:45:30.599Z,5.42
2023-04-04T07:47:59.528Z,5.29
2023-04-04T07:50:28.476Z,5.04
2023-04-04T07:52:58.188Z,4.82
2023-04-04T07:55:26.981Z,4.63
2023-04-04T07:57:55.818Z,4.62
2023-04-04T08:00:25.949Z,4.85
2023-04-04T08:02:55.250Z,5.06
2023-04-04T08:05:24.328Z,5.32
2023-04-04T08:07:52.770Z,5.29
2023-04-04T08:10:21.469Z,5.21
2023-04-04T08:12:50.239Z,5.56
2023-04-04T08:15:19.137Z,6.13
2023-04-04T08:17:47.896Z,6.47
2023-04-04T08:20:16.990Z,6.61
2023-04-04T08:22:45.624Z,6.92
2023-04-04T08:25:16.947Z,7.42
2023-04-04T08:27:45.451Z,8.19
2023-04-04T08:30:15.724Z,8.89
2023-04-04T08:32:45.430Z,9.24
2023-04-04T08:35:17.253Z,9.85
2023-04-04T08:37:46.300Z,9.99
2023-04-04T08:40:16.459Z,9.22
2023-04-04T08:42:46.526Z,8.78
2023-04-04T08:45:18.935Z,8.82
2023-04-04T08:47:50.565Z,8.70
2023-04-04T08:50:20.903Z,8.29
2023-04-04T08:52:49.952Z,7.65
2023-04-04T08:55:19.666Z,7.18
2023-04-04T08:57:49.043Z,7.12
2023-04-04T09:00:20.919Z,7.43
2023-04-04T09:02:57.844Z,7.56
2023-04-04T09:05:27.891Z,7.35
2023-04-04T09:07:57.657Z,7.36
2023-04-04T09:10:27.362Z,7.49
2023-04-04T09:13:12.371Z,7.59
2023-04-04T09:15:46.234Z,7.40
2023-04-04T09:18:15.425Z,6.97
2023-04-04T09:20:45.676Z,6.80
2023-04-04T09:23:16.881Z,6.85
2023-04-04T09:28:23.436Z,6.39
2023-04-04T09:30:53.151Z,6.41
2023-04-04T09:33:24.138Z,6.48
2023-04-04T09:35:58.130Z,6.44
2023-04-04T09:38:28.988Z,6.18
2023-04-04T09:40:58.688Z,5.85
2023-04-04T09:43:30.218Z,5.58
2023-04-04T09:46:00.193Z,5.42
2023-04-04T09:48:32.440Z,5.12
2023-04-04T09:51:05.656Z,4.81
2023-04-04T09:53:37.408Z,4.51
2023-04-04T09:56:07.856Z,4.24
2023-04-04T09:58:44.135Z,4.25
2023-04-04T10:01:19.475Z,4.24
2023-04-04T10:03:54.052Z,4.07
2023-04-04T10:06:26.844Z,3.90
2023-04-04T10:08:58.790Z,3.76
2023-04-04T10:11:32.908Z,3.70
2023-04-04T10:14:03.646Z,3.62
2023-04-04T10:16:36.540Z,3.53
2023-04-04T10:19:07.379Z,3.48
2023-04-04T10:21:36.574Z,3.51
2023-04-04T10:24:09.591Z,3.52
2023-04-04T10:26:41.842Z,3.48
2023-04-04T10:29:10.856Z,3.49
2023-04-04T10:31:44.208Z,3.52
2023-04-04T10:34:25.401Z,3.53
2023-04-04T10:36:58.836Z,3.46
2023-04-04T10:39:33.815Z,3.45
2023-04-04T10:42:06.660Z,3.36
2023-04-04T10:44:39.785Z,3.28
2023-04-04T10:47:17.213Z,3.24
2023-04-04T10:49:47.918Z,3.20
2023-04-04T10:52:18.952Z,3.17
2023-04-04T10:54:49.938Z,3.29
2023-04-04T10:57:19.220Z,3.40
2023-04-04T10:59:57.874Z,3.48
2023-04-04T11:02:50.611Z,3.44
2023-04-04T11:05:24.588Z,3.39
2023-04-04T11:10:33.987Z,3.45
2023-04-04T11:13:13.320Z,3.57
2023-04-04T11:15:57.349Z,3.65
2023-04-04T11:18:46.428Z,3.60
2023-04-04T11:21:18.309Z,3.58
2023-04-04T11:24:16.525Z,3.46
2023-04-04T11:26:46.993Z,3.36
2023-04-04T11:29:42.171Z,3.37
2023-04-04T11:32:29.546Z,3.45
2023-04-04T11:34:58.293Z,3.51
2023-04-04T11:37:31.241Z,3.60
2023-04-04T11:40:13.117Z,3.66
2023-04-04T11:42:42.707Z,3.69
2023-04-04T11:45:20.100Z,3.61
2023-04-04T11:47:50.814Z,3.40
2023-04-04T11:50:20.421Z,3.28
2023-04-04T11:52:52.707Z,3.16
2023-04-04T11:55:23.238Z,3.05
2023-04-04T11:57:54.345Z,2.89
2023-04-04T12:00:34.413Z,2.77
2023-04-04T12:03:05.037Z,2.69
2023-04-04T12:05:34.414Z,2.62
2023-04-04T12:08:04.252Z,2.61
2023-04-04T12:10:36.827Z,2.62
2023-04-04T12:13:07.766Z,2.73
2023-04-04T12:15:37.858Z,2.88
2023-04-04T12:18:09.310Z,3.03
2023-04-04T12:20:41.699Z,3.17
2023-04-04T12:23:10.535Z,3.22
2023-04-04T12:25:43.588Z,3.26
2023-04-04T12:28:14.339Z,3.18
2023-04-04T12:30:43.235Z,3.04
2023-04-04T12:33:12.803Z,2.92
2023-04-04T12:35:50.449Z,2.89
2023-04-04T12:38:19.652Z,2.79
2023-04-04T12:40:51.116Z,2.71
2023-04-04T12:43:20.495Z,2.69
2023-04-04T12:45:53.974Z,2.65
2023-04-04T12:48:28.236Z,2.61
2023-04-04T12:50:58.897Z,2.58
2023-04-04T12:53:29.950Z,2.63
2023-04-04T12:56:04.080Z,2.65
2023-04-04T12:58:34.280Z,2.67
2023-04-04T13:01:07.758Z,2.74
2023-04-04T13:03:37.292Z,2.79
2023-04-04T13:06:14.396Z,2.82
2023-04-04T13:08:53.335Z,2.83
2023-04-04T13:11:26.924Z,2.82
2023-04-04T13:14:03.593Z,2.86
2023-04-04T13:16:36.650Z,2.93
2023-04-04T13:19:05.644Z,2.91
2023-04-04T13:21:35.880Z,2.95
2023-04-04T13:24:05.493Z,3.00
2023-04-04T13:26:34.218Z,3.08
2023-04-04T13:29:02.815Z,3.16
2023-04-04T13:31:31.886Z,3.17
2023-04-04T13:34:00.520Z,3.16
2023-04-04T13:36:29.544Z,3.15
2023-04-04T13:38:58.172Z,3.16
2023-04-04T13:41:29.330Z,3.17
2023-04-04T13:43:58.242Z,3.17
2023-04-04T13:46:27.371Z,3.07
2023-04-04T13:48:56.373Z,3.07
2023-04-04T13:51:26.222Z,3.07
2023-04-04T13:53:54.698Z,3.05
2023-04-04T13:56:28.066Z,3.09
2023-04-04T13:58:57.509Z,3.14
2023-04-04T14:01:26.734Z,3.16
2023-04-04T14:03:55.834Z,3.24
2023-04-04T14:06:26.675Z,3.23
2023-04-04T14:08:56.683Z,3.13
2023-04-04T14:11:30.639Z,3.12
2023-04-04T14:13:59.155Z,3.18
2023-04-04T14:16:28.002Z,3.13
2023-04-04T14:18:57.425Z,3.08
2023-04-04T14:21:26.135Z,3.03
2023-04-04T14:23:55.262Z,3.00
2023-04-04T14:26:28.040Z,2.97
2023-04-04T14:28:56.909Z,2.91
2023-04-04T14:31:27.162Z,2.84
2023-04-04T14:33:55.689Z,2.81
2023-04-04T14:36:25.559Z,2.85
2023-04-04T14:38:54.938Z,2.85
2023-04-04T14:41:31.483Z,2.81
2023-04-04T14:44:00.485Z,2.80
2023-04-04T14:46:30.336Z,2.82
2023-04-04T14:49:02.854Z,2.82
2023-04-04T14:51:32.132Z,2.79
2023-04-04T14:54:00.761Z,2.76
2023-04-04T14:56:30.993Z,2.71
2023-04-04T14:59:05.005Z,2.71
2023-04-04T15:01:33.978Z,2.76
2023-04-04T15:04:03.801Z,2.80
2023-04-04T15:06:35.759Z,2.81
2023-04-04T15:09:06.042Z,2.85
2023-04-04T15:11:35.487Z,2.90
2023-04-04T15:14:04.592Z,2.94
2023-04-04T15:16:35.458Z,2.95
2023-04-04T15:19:04.114Z,2.95
2023-04-04T15:21:33.039Z,2.87
2023-04-04T15:24:01.726Z,2.85
2023-04-04T15:26:30.951Z,2.88
2023-04-04T15:29:00.101Z,2.92
2023-04-04T15:31:30.155Z,2.94
2023-04-04T15:34:01.989Z,2.96
2023-04-04T15:36:33.483Z,2.97
2023-04-04T15:39:03.023Z,2.97
2023-04-04T15:41:32.640Z,2.93
2023-04-04T15:44:01.639Z,2.86
2023-04-04T15:46:34.327Z,2.78
2023-04-04T15:49:03.637Z,2.74
2023-04-04T15:51:32.904Z,2.71
2023-04-04T15:54:01.916Z,2.66
2023-04-04T15:56:31.849Z,2.61
2023-04-04T15:59:00.622Z,2.54
2023-04-04T16:01:32.493Z,2.45
2023-04-04T16:04:01.377Z,2.40
2023-04-04T16:06:31.297Z,2.37
2023-04-04T16:09:05.026Z,2.34
2023-04-04T16:11:34.074Z,2.30
2023-04-04T16:14:02.948Z,2.24
2023-04-04T16:16:33.207Z,2.19
2023-04-04T16:19:02.160Z,2.13
2023-04-04T16:21:31.682Z,2.08
2023-04-04T16:24:03.308Z,2.01
2023-04-04T16:26:32.896Z,1.96
2023-04-04T16:29:02.756Z,1.90
2023-04-04T16:31:32.405Z,1.84
2023-04-04T16:34:01.409Z,1.77
2023-04-04T16:36:30.497Z,1.73
2023-04-04T16:38:59.390Z,1.69
2023-04-04T16:41:33.522Z,1.65
2023-04-04T16:44:02.073Z,1.61
2023-04-04T16:46:31.180Z,1.58
2023-04-04T16:49:00.107Z,1.55
2023-04-04T16:51:31.132Z,1.54
2023-04-04T16:54:00.212Z,1.53
2023-04-04T16:56:32.079Z,1.52
2023-04-04T16:59:01.244Z,1.49
2023-04-04T17:01:35.835Z,1.48
2023-04-04T17:04:05.208Z,1.45
2023-04-04T17:06:34.229Z,1.42
2023-04-04T17:09:03.049Z,1.40
2023-04-04T17:11:31.852Z,1.37
2023-04-04T17:14:00.544Z,1.33
2023-04-04T17:16:30.446Z,1.30
2023-04-04T17:18:59.761Z,1.27
2023-04-04T17:21:28.719Z,1.24
2023-04-04T17:23:59.291Z,1.20
2023-04-04T17:26:31.035Z,1.17
2023-04-04T17:28:59.712Z,1.15
2023-04-04T17:31:30.226Z,1.13
2023-04-04T17:34:00.583Z,1.12
2023-04-04T17:36:31.869Z,1.11
2023-04-04T17:39:00.513Z,1.10
2023-04-04T17:41:33.259Z,1.10
2023-04-04T17:44:01.867Z,1.08
2023-04-04T17:46:31.718Z,1.07
2023-04-04T17:49:01.206Z,1.05
2023-04-04T17:51:30.287Z,1.04
2023-04-04T17:54:01.728Z,1.02
2023-04-04T17:56:31.871Z,1.00
2023-04-04T17:59:01.144Z,0.99
2023-04-04T18:01:32.128Z,0.97
2023-04-04T18:04:00.905Z,0.95
2023-04-04T18:06:30.038Z,0.94
2023-04-04T18:08:59.372Z,0.92
2023-04-04T18:11:33.585Z,0.90
2023-04-04T18:14:03.459Z,0.89
2023-04-04T18:16:38.346Z,0.89
2023-04-04T18:19:09.311Z,0.88
2023-04-04T18:21:39.814Z,0.87
2023-04-04T18:24:11.352Z,0.87
2023-04-04T18:26:44.648Z,0.86
2023-04-04T18:29:21.570Z,0.85
2023-04-04T18:31:53.531Z,0.84
2023-04-04T18:34:27.236Z,0.84
2023-04-04T18:36:55.920Z,0.83
2023-04-04T18:39:24.706Z,0.82
2023-04-04T18:41:56.039Z,0.81
2023-04-04T18:44:30.617Z,0.80
2023-04-04T18:47:04.777Z,0.79
2023-04-04T18:49:33.791Z,0.78
2023-04-04T18:52:03.256Z,0.76
2023-04-04T18:54:31.931Z,0.75
2023-04-04T18:57:10.485Z,0.73
2023-04-04T18:59:42.468Z,0.71
2023-04-04T19:02:18.461Z,0.69
2023-04-04T19:05:00.255Z,0.67
2023-04-04T19:07:36.048Z,0.64
2023-04-04T19:10:18.076Z,0.61
2023-04-04T19:12:57.048Z,0.59
2023-04-04T19:15:36.213Z,0.55
2023-04-04T19:18:23.366Z,0.52
2023-04-04T19:20:59.310Z,0.47
2023-04-04T19:23:37.327Z,0.42
2023-04-04T19:26:18.003Z,0.36
2023-04-04T19:28:54.755Z,0.27
2023-04-04T19:31:33.860Z,0.22
2023-04-04T19:34:09.898Z,0.17
2023-04-04T19:36:46.818Z,0.12
2023-04-04T19:39:24.160Z,0.05
2023-04-04T19:41:58.441Z,0.00
2023-04-04T19:44:39.757Z,-0.05
2023-04-04T19:47:20.159Z,-0.11
2023-04-04T19:49:52.410Z,-0.18
2023-04-04T19:52:23.990Z,-0.26
2023-04-04T19:54:52.610Z,-0.33
2023-04-04T19:57:22.920Z,-0.41
2023-04-04T20:00:01.037Z,-0.52
2023-04-04T20:02:56.365Z,-0.65
2023-04-04T20:05:56.411Z,-0.84
2023-04-04T20:08:36.840Z,-1.01
2023-04-04T20:11:06.729Z,-1.13
2023-04-04T20:13:40.008Z,-1.27
2023-04-04T20:16:11.676Z,-1.39
2023-04-04T20:18:43.401Z,-1.49
2023-04-04T20:21:15.637Z,-1.58
2023-04-04T20:23:47.847Z,-1.65
2023-04-04T20:26:44.583Z,-1.72
2023-04-04T20:29:16.504Z,-1.80
2023-04-04T20:31:46.912Z,-1.85
2023-04-04T20:34:36.880Z,-1.89
2023-04-04T20:37:09.421Z,-1.94
2023-04-04T20:39:41.101Z,-1.99
2023-04-04T20:42:19.492Z,-2.04
2023-04-04T20:44:48.493Z,-2.09
2023-04-04T20:47:44.097Z,-2.12
2023-04-04T20:50:45.158Z,-2.09
2023-04-04T20:53:21.415Z,-2.05
2023-04-04T20:55:50.396Z,-2.06
2023-04-04T20:58:30.754Z,-2.09
2023-04-04T21:01:00.850Z,-2.12
2023-04-04T21:03:51.252Z,-2.15
2023-04-04T21:06:28.075Z,-2.15
2023-04-04T21:08:56.788Z,-2.15
2023-04-04T21:11:30.191Z,-2.13
2023-04-04T21:14:00.730Z,-2.04
2023-04-04T21:16:29.491Z,-1.97
2023-04-04T21:18:58.799Z,-1.91
2023-04-04T21:21:26.973Z,-1.85
2023-04-04T21:23:55.425Z,-1.82
2023-04-04T21:26:27.753Z,-1.81
2023-04-04T21:28:56.363Z,-1.82
2023-04-04T21:31:25.138Z,-1.88
2023-04-04T21:33:54.289Z,-1.89
2023-04-04T21:36:29.329Z,-1.89
2023-04-04T21:38:58.858Z,-1.91
2023-04-04T21:41:27.528Z,-1.92
2023-04-04T21:43:56.354Z,-1.94
2023-04-04T21:46:24.934Z,-1.95
2023-04-04T21:48:53.298Z,-2.00
2023-04-04T21:51:22.314Z,-2.07
2023-04-04T21:53:50.370Z,-2.13
2023-04-04T21:56:18.482Z,-2.16
2023-04-04T21:58:47.337Z,-2.18
2023-04-04T22:01:16.307Z,-2.21
2023-04-04T22:03:47.300Z,-2.23
2023-04-04T22:06:16.871Z,-2.30
2023-04-04T22:08:44.887Z,-2.41
2023-04-04T22:11:14.552Z,-2.52
2023-04-04T22:13:46.467Z,-2.62
2023-04-04T22:16:18.551Z,-2.70
2023-04-04T22:18:51.686Z,-2.74
2023-04-04T22:21:25.275Z,-2.75
2023-04-04T22:23:54.099Z,-2.78
2023-04-04T22:26:31.491Z,-2.83
2023-04-04T22:29:04.765Z,-2.87
2023-04-04T22:31:33.876Z,-2.90
2023-04-04T22:34:02.701Z,-2.91
2023-04-04T22:36:30.291Z,-2.92
2023-04-04T22:39:00.149Z,-2.94
2023-04-04T22:41:30.312Z,-2.99
2023-04-04T22:43:59.471Z,-3.06
2023-04-04T22:46:28.217Z,-3.09
2023-04-04T22:49:03.880Z,-3.10
2023-04-04T22:51:42.240Z,-3.14
2023-04-04T22:54:10.060Z,-3.17
2023-04-04T22:56:37.749Z,-3.23
2023-04-04T22:59:05.652Z,-3.29
2023-04-04T23:01:33.264Z,-3.34
2023-04-04T23:04:01.207Z,-3.39
2023-04-04T23:06:29.223Z,-3.42
2023-04-04T23:08:56.899Z,-3.43
2023-04-04T23:11:26.590Z,-3.45
2023-04-04T23:13:56.679Z,-3.47
2023-04-04T23:16:26.286Z,-3.50
2023-04-04T23:18:55.323Z,-3.54
2023-04-04T23:21:24.405Z,-3.56
2023-04-04T23:23:52.228Z,-3.54
2023-04-04T23:26:19.863Z,-3.53
2023-04-04T23:28:47.634Z,-3.52
2023-04-04T23:31:16.370Z,-3.52
2023-04-04T23:33:44.925Z,-3.55
2023-04-04T23:36:12.467Z,-3.60
2023-04-04T23:38:41.428Z,-3.66
2023-04-04T23:41:09.204Z,-3.70
2023-04-04T23:43:38.034Z,-3.70
2023-04-04T23:46:07.155Z,-3.72
2023-04-04T23:48:36.229Z,-3.78
2023-04-04T23:51:04.045Z,-3.81
2023-04-04T23:53:31.746Z,-3.84
2023-04-04T23:56:00.024Z,-3.87
2023-04-04T23:58:29.201Z,-3.89
